createdAt,value
2023-03-17T00:01:40.029Z,8.15
2023-03-17T00:04:09.469Z,7.65
2023-03-17T00:06:37.082Z,8.60
2023-03-17T00:09:04.099Z,9.45
2023-03-17T00:11:31.121Z,7.50
2023-03-17T00:13:57.959Z,6.45
2023-03-17T00:16:27.112Z,9.90
2023-03-17T00:18:54.701Z,6.85
2023-03-17T00:21:31.679Z,9.73
2023-03-17T00:23:58.737Z,7.00
2023-03-17T00:26:26.562Z,10.38
2023-03-17T00:28:54.521Z,9.98
2023-03-17T00:31:25.539Z,11.90
2023-03-17T00:33:54.113Z,8.65
2023-03-17T00:36:22.784Z,7.10
2023-03-17T00:38:49.970Z,8.23
2023-03-17T00:41:18.395Z,9.75
2023-03-17T00:43:45.683Z,10.57
2023-03-17T00:46:16.686Z,10.57
2023-03-17T00:48:44.108Z,7.75
2023-03-17T00:51:12.257Z,7.25
2023-03-17T00:53:39.870Z,6.82
2023-03-17T00:56:15.568Z,10.77
2023-03-17T00:58:42.884Z,10.85
2023-03-17T01:01:10.014Z,7.55
2023-03-17T01:03:37.098Z,8.43
2023-03-17T01:06:04.740Z,9.23
2023-03-17T01:08:31.746Z,7.88
2023-03-17T01:10:59.615Z,10.68
2023-03-17T01:13:26.602Z,7.30
2023-03-17T01:15:54.190Z,11.43
2023-03-17T01:18:21.658Z,11.13
2023-03-17T01:20:48.906Z,8.40
2023-03-17T01:23:16.953Z,5.53
2023-03-17T01:25:44.642Z,7.55
2023-03-17T01:28:15.959Z,6.28
2023-03-17T01:30:43.783Z,9.70
2023-03-17T01:33:11.762Z,9.15
2023-03-17T01:35:38.771Z,10.98
2023-03-17T01:38:06.113Z,6.88
2023-03-17T01:40:37.610Z,9.73
2023-03-17T01:43:19.531Z,9.52
2023-03-17T01:46:14.829Z,8.18
2023-03-17T01:48:44.787Z,9.18
2023-03-17T01:51:24.556Z,13.43
2023-03-17T01:53:52.941Z,10.15
2023-03-17T01:56:19.901Z,10.25
2023-03-17T01:58:49.580Z,13.90
2023-03-17T02:01:16.499Z,9.95
2023-03-17T02:03:43.425Z,7.85
2023-03-17T02:06:11.645Z,11.77
2023-03-17T02:08:38.610Z,7.10
2023-03-17T02:11:05.661Z,7.70
2023-03-17T02:13:33.069Z,7.15
2023-03-17T02:16:00.499Z,10.93
2023-03-17T02:18:27.447Z,9.40
2023-03-17T02:20:54.310Z,9.02
2023-03-17T02:23:24.810Z,6.13
2023-03-17T02:25:52.643Z,9.45
2023-03-17T02:28:23.296Z,12.85
2023-03-17T02:30:50.201Z,13.07
2023-03-17T02:33:18.101Z,10.23
2023-03-17T02:35:46.324Z,9.00
2023-03-17T02:38:17.587Z,12.57
2023-03-17T02:40:44.547Z,9.38
2023-03-17T02:43:11.430Z,7.10
2023-03-17T02:45:38.314Z,9.00
2023-03-17T02:48:05.572Z,7.18
2023-03-17T02:50:32.978Z,9.90
2023-03-17T02:52:59.810Z,7.97
2023-03-17T02:55:27.203Z,8.43
2023-03-17T02:57:54.064Z,10.52
2023-03-17T03:00:21.639Z,9.32
2023-03-17T03:02:48.615Z,12.38
2023-03-17T03:05:15.520Z,6.95
2023-03-17T03:07:42.566Z,5.30
2023-03-17T03:10:10.555Z,6.75
2023-03-17T03:12:37.400Z,6.53
2023-03-17T03:15:05.311Z,8.38
2023-03-17T03:17:32.136Z,6.60
2023-03-17T03:19:59.269Z,7.47
2023-03-17T03:22:26.272Z,10.35
2023-03-17T03:24:53.103Z,9.07
2023-03-17T03:27:19.972Z,7.05
2023-03-17T03:29:47.098Z,10.18
2023-03-17T03:32:13.996Z,8.30
2023-03-17T03:34:41.306Z,6.95
2023-03-17T03:37:08.314Z,9.32
2023-03-17T03:39:35.238Z,6.78
2023-03-17T03:42:02.100Z,11.98
2023-03-17T03:44:28.974Z,5.93
2023-03-17T03:46:55.918Z,6.32
2023-03-17T03:49:23.168Z,13.32
2023-03-17T03:51:50.113Z,9.02
2023-03-17T03:54:16.974Z,10.15
2023-03-17T03:56:43.898Z,8.77
2023-03-17T03:59:10.724Z,7.93
2023-03-17T04:01:38.808Z,11.57
2023-03-17T04:04:05.824Z,7.68
2023-03-17T04:06:32.737Z,6.85
2023-03-17T04:08:59.661Z,5.85
2023-03-17T04:11:26.577Z,8.68
2023-03-17T04:13:53.419Z,8.43
2023-03-17T04:16:20.412Z,8.75
2023-03-17T04:18:47.344Z,8.77
2023-03-17T04:21:18.421Z,5.90
2023-03-17T04:23:46.113Z,9.57
2023-03-17T04:26:13.724Z,7.70
2023-03-17T04:28:40.784Z,10.93
2023-03-17T04:31:09.599Z,8.73
2023-03-17T04:33:36.464Z,10.65
2023-03-17T04:36:04.189Z,11.77
2023-03-17T04:38:31.096Z,6.38
2023-03-17T04:40:57.954Z,7.80
2023-03-17T04:43:24.791Z,12.05
2023-03-17T04:45:52.167Z,8.10
2023-03-17T04:48:19.107Z,9.80
2023-03-17T04:50:47.901Z,8.30
2023-03-17T04:53:14.885Z,6.65
2023-03-17T04:55:42.177Z,8.48
2023-03-17T04:58:10.346Z,7.68
2023-03-17T05:00:39.095Z,5.85
2023-03-17T05:03:16.795Z,9.10
2023-03-17T05:05:52.800Z,6.22
2023-03-17T05:08:20.242Z,6.53
2023-03-17T05:10:47.131Z,6.32
2023-03-17T05:13:14.014Z,7.95
2023-03-17T05:15:41.092Z,8.02
2023-03-17T05:18:08.356Z,7.30
2023-03-17T05:20:35.201Z,9.65
2023-03-17T05:23:02.044Z,10.05
2023-03-17T05:25:28.941Z,8.98
2023-03-17T05:27:55.777Z,10.13
2023-03-17T05:30:22.736Z,12.02
2023-03-17T05:32:49.765Z,12.02
2023-03-17T05:35:17.482Z,14.68
2023-03-17T05:37:44.582Z,15.52
2023-03-17T05:40:12.504Z,10.32
2023-03-17T05:42:39.324Z,10.93
2023-03-17T05:45:07.367Z,9.25
2023-03-17T05:47:34.513Z,10.45
2023-03-17T05:50:01.633Z,7.93
2023-03-17T05:52:28.582Z,9.07
2023-03-17T05:54:55.455Z,9.07
2023-03-17T05:57:22.337Z,8.73
2023-03-17T05:59:49.317Z,9.35
2023-03-17T06:02:16.337Z,10.05
2023-03-17T06:04:43.395Z,9.13
2023-03-17T06:07:10.541Z,10.00
2023-03-17T06:09:37.416Z,12.25
2023-03-17T06:12:04.651Z,11.57
2023-03-17T06:14:31.531Z,12.45
2023-03-17T06:16:58.457Z,12.50
2023-03-17T06:19:25.388Z,13.35
2023-03-17T06:21:52.242Z,10.30
2023-03-17T06:24:19.108Z,11.63
2023-03-17T06:26:46.211Z,11.05
2023-03-17T06:29:13.605Z,14.73
2023-03-17T06:31:40.815Z,11.68
2023-03-17T06:34:08.308Z,11.82
2023-03-17T06:36:37.539Z,12.93
2023-03-17T06:39:05.733Z,10.40
2023-03-17T06:41:32.578Z,13.00
2023-03-17T06:43:59.833Z,11.75
2023-03-17T06:46:27.181Z,12.95
2023-03-17T06:48:54.060Z,10.45
2023-03-17T06:51:20.881Z,8.43
2023-03-17T06:53:47.797Z,9.77
2023-03-17T06:56:27.393Z,11.90
2023-03-17T06:58:56.627Z,10.00
2023-03-17T07:01:23.636Z,9.10
2023-03-17T07:03:50.912Z,9.88
2023-03-17T07:06:17.778Z,8.90
2023-03-17T07:08:44.857Z,8.98
2023-03-17T07:11:11.786Z,9.23
2023-03-17T07:13:39.336Z,10.10
2023-03-17T07:16:07.134Z,10.20
2023-03-17T07:18:34.407Z,7.75
2023-03-17T07:21:04.501Z,11.43
2023-03-17T07:23:31.500Z,10.85
2023-03-17T07:25:58.396Z,9.48
2023-03-17T07:28:25.345Z,9.05
2023-03-17T07:30:52.541Z,9.80
2023-03-17T07:33:22.319Z,10.52
2023-03-17T07:35:49.653Z,9.20
2023-03-17T07:38:17.379Z,8.55
2023-03-17T07:40:46.145Z,9.73
2023-03-17T07:43:13.449Z,9.35
2023-03-17T07:45:40.510Z,8.93
2023-03-17T07:48:07.560Z,9.25
2023-03-17T07:50:35.035Z,11.77
2023-03-17T07:53:03.362Z,9.70
2023-03-17T07:55:31.163Z,10.93
2023-03-17T07:57:58.421Z,10.55
2023-03-17T08:00:27.164Z,12.20
2023-03-17T08:03:08.971Z,11.23
2023-03-17T08:05:36.537Z,10.80
2023-03-17T08:08:05.359Z,9.30
2023-03-17T08:10:32.592Z,12.50
2023-03-17T08:12:59.779Z,8.88
2023-03-17T08:15:26.762Z,8.77
2023-03-17T08:17:54.263Z,7.90
2023-03-17T08:20:21.903Z,8.98
2023-03-17T08:22:48.840Z,7.22
2023-03-17T08:25:15.783Z,8.77
2023-03-17T08:27:42.777Z,7.80
2023-03-17T08:30:10.376Z,7.40
2023-03-17T08:32:37.365Z,7.82
2023-03-17T08:35:06.498Z,6.20
2023-03-17T08:37:33.441Z,7.23
2023-03-17T08:40:01.310Z,9.02
2023-03-17T08:42:28.207Z,9.73
2023-03-17T08:44:55.392Z,5.30
2023-03-17T08:47:22.257Z,6.53
2023-03-17T08:49:49.751Z,5.28
2023-03-17T08:52:17.065Z,4.80
2023-03-17T08:54:43.989Z,5.43
2023-03-17T08:57:10.861Z,5.68
2023-03-17T08:59:37.808Z,5.22
2023-03-17T09:02:05.250Z,5.30
2023-03-17T09:04:32.607Z,4.93
2023-03-17T09:07:03.841Z,4.07
2023-03-17T09:09:32.231Z,4.88
2023-03-17T09:11:59.156Z,4.88
2023-03-17T09:14:26.088Z,3.60
2023-03-17T09:16:53.035Z,5.05
2023-03-17T09:19:20.408Z,4.55
2023-03-17T09:21:47.362Z,5.15
2023-03-17T09:24:14.746Z,4.63
2023-03-17T09:26:41.730Z,4.20
2023-03-17T09:29:08.656Z,6.07
2023-03-17T09:31:38.551Z,3.42
2023-03-17T09:34:05.687Z,5.55
2023-03-17T09:36:35.755Z,5.00
2023-03-17T09:39:02.989Z,5.07
2023-03-17T09:41:58.205Z,4.15
2023-03-17T09:44:46.117Z,4.00
2023-03-17T09:47:25.401Z,4.82
2023-03-17T09:49:54.077Z,6.95
2023-03-17T09:52:27.668Z,4.53
2023-03-17T09:54:54.639Z,6.55
2023-03-17T09:57:25.286Z,3.33
2023-03-17T10:00:17.035Z,4.20
2023-03-17T10:02:44.221Z,4.45
2023-03-17T10:05:35.842Z,4.30
2023-03-17T10:08:32.126Z,3.13
2023-03-17T10:11:05.577Z,3.83
2023-03-17T10:14:03.856Z,3.15
2023-03-17T10:16:40.020Z,2.53
2023-03-17T10:19:11.035Z,2.85
2023-03-17T10:21:41.604Z,2.63
2023-03-17T10:24:09.438Z,3.35
2023-03-17T10:26:44.258Z,3.17
2023-03-17T10:29:16.004Z,3.58
2023-03-17T10:31:43.252Z,4.20
2023-03-17T10:34:20.275Z,3.45
2023-03-17T10:37:09.500Z,4.70
2023-03-17T10:40:04.401Z,4.60
2023-03-17T10:42:33.096Z,2.08
2023-03-17T10:45:13.341Z,3.80
2023-03-17T10:47:50.261Z,2.83
2023-03-17T10:50:17.227Z,4.38
2023-03-17T10:52:46.720Z,6.65
2023-03-17T10:55:22.350Z,3.08
2023-03-17T10:58:02.840Z,4.75
2023-03-17T11:00:33.942Z,3.83
2023-03-17T11:03:12.906Z,4.15
2023-03-17T11:05:40.164Z,6.63
2023-03-17T11:08:11.066Z,3.80
2023-03-17T11:10:39.417Z,3.15
2023-03-17T11:13:06.770Z,3.75
2023-03-17T11:15:41.222Z,5.68
2023-03-17T11:18:18.659Z,4.25
2023-03-17T11:20:51.496Z,3.60
2023-03-17T11:23:40.719Z,5.55
2023-03-17T11:26:17.647Z,6.30
2023-03-17T11:28:57.586Z,5.93
2023-03-17T11:31:29.852Z,6.93
2023-03-17T11:34:03.178Z,4.53
2023-03-17T11:36:41.231Z,4.28
2023-03-17T11:39:16.629Z,4.57
2023-03-17T11:41:51.788Z,3.83
2023-03-17T11:44:27.732Z,4.32
2023-03-17T11:47:07.547Z,5.95
2023-03-17T11:52:32.617Z,4.80
2023-03-17T11:55:09.346Z,5.07
2023-03-17T11:57:52.255Z,5.38
2023-03-17T12:00:45.562Z,5.97
2023-03-17T12:03:18.329Z,5.78
2023-03-17T12:05:47.815Z,4.50
2023-03-17T12:08:26.693Z,10.07
2023-03-17T12:10:55.594Z,4.88
2023-03-17T12:13:33.008Z,5.75
2023-03-17T12:16:14.547Z,5.43
2023-03-17T12:19:01.056Z,5.10
2023-03-17T12:21:34.114Z,6.15
2023-03-17T12:24:12.979Z,5.28
2023-03-17T12:26:43.689Z,4.75
2023-03-17T12:29:43.355Z,6.82
2023-03-17T12:32:25.235Z,4.35
2023-03-17T12:34:57.448Z,4.63
2023-03-17T12:37:25.748Z,3.92
2023-03-17T12:39:59.212Z,6.70
2023-03-17T12:42:58.308Z,4.97
2023-03-17T12:45:32.669Z,5.00
2023-03-17T12:48:21.454Z,6.82
2023-03-17T12:51:09.245Z,4.90
2023-03-17T12:53:38.606Z,4.38
2023-03-17T12:56:33.128Z,4.38
2023-03-17T12:59:00.791Z,4.07
2023-03-17T13:01:44.676Z,4.00
2023-03-17T13:04:32.431Z,4.78
2023-03-17T13:07:12.927Z,5.03
2023-03-17T13:09:43.956Z,7.38
2023-03-17T13:12:41.642Z,4.32
2023-03-17T13:15:40.968Z,5.65
2023-03-17T13:18:16.686Z,4.90
2023-03-17T13:20:45.749Z,7.05
2023-03-17T13:23:14.593Z,6.47
2023-03-17T13:25:41.851Z,5.72
2023-03-17T13:28:15.185Z,5.78
2023-03-17T13:30:49.242Z,4.88
2023-03-17T13:33:23.546Z,4.63
2023-03-17T13:36:16.497Z,3.15
2023-03-17T13:39:21.370Z,4.70
2023-03-17T13:42:11.840Z,9.95
2023-03-17T13:45:06.409Z,3.38
2023-03-17T13:47:35.643Z,2.60
2023-03-17T13:50:08.542Z,3.80
2023-03-17T13:52:41.543Z,3.25
2023-03-17T13:55:20.812Z,6.85
2023-03-17T13:58:09.156Z,7.68
2023-03-17T14:00:39.045Z,3.65
2023-03-17T14:03:16.523Z,6.07
2023-03-17T14:05:46.536Z,5.38
2023-03-17T14:08:17.091Z,3.92
2023-03-17T14:10:44.856Z,4.75
2023-03-17T14:13:24.180Z,5.22
2023-03-17T14:15:56.538Z,5.00
2023-03-17T14:19:01.278Z,2.90
2023-03-17T14:21:32.230Z,3.70
2023-03-17T14:24:04.407Z,3.95
2023-03-17T14:26:31.948Z,3.00
2023-03-17T14:29:02.952Z,3.42
2023-03-17T14:31:30.043Z,3.38
2023-03-17T14:34:00.517Z,4.10
2023-03-17T14:36:28.266Z,3.92
2023-03-17T14:38:56.389Z,3.13
2023-03-17T14:41:27.527Z,4.32
2023-03-17T14:43:57.934Z,3.63
2023-03-17T14:46:35.409Z,2.40
2023-03-17T14:49:21.622Z,3.47
2023-03-17T14:51:49.948Z,3.45
2023-03-17T14:54:21.295Z,3.53
2023-03-17T14:56:51.110Z,5.07
2023-03-17T15:01:49.841Z,5.55
2023-03-17T15:04:17.591Z,6.38
2023-03-17T15:07:01.432Z,3.28
2023-03-17T15:09:36.566Z,3.72
2023-03-17T15:12:12.548Z,4.03
2023-03-17T15:14:39.957Z,4.93
2023-03-17T15:17:14.377Z,2.13
2023-03-17T15:19:43.173Z,4.05
2023-03-17T15:22:42.108Z,4.10
2023-03-17T15:25:28.929Z,4.37
2023-03-17T15:27:56.091Z,3.65
2023-03-17T15:30:23.652Z,3.25
2023-03-17T15:32:52.105Z,3.22
2023-03-17T15:35:19.059Z,4.82
2023-03-17T15:37:46.025Z,3.63
2023-03-17T15:40:13.913Z,5.78
2023-03-17T15:42:40.846Z,6.38
2023-03-17T15:45:08.589Z,6.72
2023-03-17T15:47:37.112Z,5.40
2023-03-17T15:50:18.247Z,4.38
2023-03-17T15:52:45.844Z,8.35
2023-03-17T15:55:17.561Z,4.80
2023-03-17T15:57:53.844Z,7.32
2023-03-17T16:00:22.903Z,5.53
2023-03-17T16:02:51.970Z,5.97
2023-03-17T16:05:39.792Z,5.18
2023-03-17T16:08:07.080Z,5.40
2023-03-17T16:10:34.431Z,5.70
2023-03-17T16:13:01.470Z,8.80
2023-03-17T16:15:31.093Z,6.32
2023-03-17T16:17:59.691Z,3.05
2023-03-17T16:20:52.961Z,3.45
2023-03-17T16:23:23.491Z,5.88
2023-03-17T16:25:50.491Z,7.80
2023-03-17T16:28:22.385Z,6.60
2023-03-17T16:30:49.560Z,6.47
2023-03-17T16:33:32.343Z,6.50
2023-03-17T16:35:59.913Z,8.18
2023-03-17T16:38:28.697Z,3.60
2023-03-17T16:41:00.465Z,4.72
2023-03-17T16:43:31.597Z,7.07
2023-03-17T16:45:59.433Z,6.32
2023-03-17T16:48:26.686Z,5.40
2023-03-17T16:50:53.768Z,4.72
2023-03-17T16:53:20.861Z,5.65
2023-03-17T16:55:47.865Z,4.90
2023-03-17T16:58:24.636Z,6.22
2023-03-17T17:00:52.942Z,7.30
2023-03-17T17:03:19.986Z,4.05
2023-03-17T17:05:47.020Z,10.25
2023-03-17T17:08:13.947Z,5.75
2023-03-17T17:10:40.935Z,9.80
2023-03-17T17:13:08.542Z,4.63
2023-03-17T17:15:36.212Z,6.90
2023-03-17T17:18:08.357Z,7.90
2023-03-17T17:20:39.332Z,8.05
2023-03-17T17:23:09.829Z,8.10
2023-03-17T17:25:36.766Z,7.57
2023-03-17T17:28:03.655Z,10.02
2023-03-17T17:30:31.349Z,3.90
2023-03-17T17:32:59.231Z,5.90
2023-03-17T17:35:27.147Z,6.43
2023-03-17T17:37:54.057Z,5.95
2023-03-17T17:40:21.859Z,6.15
2023-03-17T17:42:48.769Z,9.30
2023-03-17T17:45:16.053Z,3.88
2023-03-17T17:47:43.160Z,6.80
2023-03-17T17:50:12.076Z,6.03
2023-03-17T17:52:38.896Z,8.23
2023-03-17T17:55:06.172Z,8.40
2023-03-17T17:57:33.092Z,5.00
2023-03-17T18:00:00.011Z,8.82
2023-03-17T18:02:26.844Z,9.82
2023-03-17T18:04:53.778Z,7.07
2023-03-17T18:07:20.714Z,8.02
2023-03-17T18:09:47.596Z,11.32
2023-03-17T18:12:14.689Z,9.57
2023-03-17T18:14:41.615Z,8.50
2023-03-17T18:17:08.935Z,6.00
2023-03-17T18:19:35.960Z,5.45
2023-03-17T18:22:02.999Z,7.80
2023-03-17T18:24:30.169Z,7.65
2023-03-17T18:26:57.056Z,8.65
2023-03-17T18:29:23.966Z,8.63
2023-03-17T18:31:52.568Z,5.93
2023-03-17T18:34:21.060Z,7.00
2023-03-17T18:36:48.102Z,5.65
2023-03-17T18:39:15.641Z,6.00
2023-03-17T18:41:42.504Z,11.85
2023-03-17T18:44:10.231Z,7.68
2023-03-17T18:46:37.628Z,7.93
2023-03-17T18:49:05.772Z,8.88
2023-03-17T18:51:32.932Z,8.02
2023-03-17T18:53:59.974Z,8.60
2023-03-17T18:56:29.267Z,6.07
2023-03-17T18:58:56.872Z,5.75
2023-03-17T19:01:23.872Z,9.70
2023-03-17T19:03:50.946Z,8.13
2023-03-17T19:06:19.357Z,6.28
2023-03-17T19:08:46.442Z,6.40
2023-03-17T19:11:15.451Z,7.43
2023-03-17T19:13:42.504Z,7.37
2023-03-17T19:16:09.562Z,8.05
2023-03-17T19:18:36.939Z,8.30
2023-03-17T19:21:03.991Z,6.32
2023-03-17T19:23:32.290Z,13.32
2023-03-17T19:25:59.415Z,8.90
2023-03-17T19:28:26.398Z,6.35
2023-03-17T19:30:53.574Z,6.68
2023-03-17T19:33:20.687Z,13.75
2023-03-17T19:35:51.482Z,6.68
2023-03-17T19:38:19.217Z,5.55
2023-03-17T19:40:46.147Z,6.85
2023-03-17T19:43:12.991Z,9.15
2023-03-17T19:45:39.874Z,8.45
2023-03-17T19:48:06.766Z,9.80
2023-03-17T19:50:33.892Z,8.35
2023-03-17T19:53:01.216Z,7.82
2023-03-17T19:55:29.559Z,9.43
2023-03-17T19:57:56.845Z,8.00
2023-03-17T20:00:23.864Z,8.50
2023-03-17T20:02:51.327Z,9.05
2023-03-17T20:05:18.248Z,9.00
2023-03-17T20:07:45.142Z,7.93
2023-03-17T20:10:12.308Z,13.10
2023-03-17T20:12:40.320Z,9.73
2023-03-17T20:15:07.999Z,10.27
2023-03-17T20:17:35.363Z,11.43
2023-03-17T20:20:02.616Z,15.23
2023-03-17T20:22:29.498Z,14.70
2023-03-17T20:24:56.316Z,9.13
2023-03-17T20:27:23.576Z,8.52
2023-03-17T20:29:50.460Z,14.85
2023-03-17T20:32:18.154Z,10.65
2023-03-17T20:34:45.117Z,10.63
2023-03-17T20:37:14.180Z,15.35
2023-03-17T20:39:41.251Z,14.57
2023-03-17T20:42:14.468Z,14.10
2023-03-17T20:44:42.206Z,13.20
2023-03-17T20:47:09.127Z,11.35
2023-03-17T20:49:36.147Z,12.23
2023-03-17T20:52:05.994Z,13.10
2023-03-17T20:54:33.453Z,11.20
2023-03-17T20:57:01.084Z,15.18
2023-03-17T20:59:28.047Z,12.80
2023-03-17T21:01:54.979Z,10.55
2023-03-17T21:04:22.251Z,11.45
2023-03-17T21:06:49.800Z,9.95
2023-03-17T21:09:16.722Z,10.68
2023-03-17T21:11:43.592Z,8.85
2023-03-17T21:14:13.373Z,12.93
2023-03-17T21:16:42.815Z,13.43
2023-03-17T21:19:13.458Z,8.27
2023-03-17T21:21:40.287Z,8.35
2023-03-17T21:24:09.508Z,9.68
2023-03-17T21:26:36.474Z,11.27
2023-03-17T21:29:03.435Z,10.80
2023-03-17T21:31:30.315Z,15.13
2023-03-17T21:33:57.183Z,11.35
2023-03-17T21:36:24.025Z,12.30
2023-03-17T21:38:50.897Z,14.90
2023-03-17T21:41:33.295Z,12.30
2023-03-17T21:44:01.405Z,12.55
2023-03-17T21:46:28.711Z,11.23
2023-03-17T21:48:56.070Z,14.07
2023-03-17T21:51:23.094Z,9.38
2023-03-17T21:53:49.962Z,12.23
2023-03-17T21:56:17.194Z,11.88
2023-03-17T21:58:44.214Z,10.90
2023-03-17T22:01:11.624Z,15.30
2023-03-17T22:03:39.977Z,9.07
2023-03-17T22:06:07.241Z,11.65
2023-03-17T22:08:34.727Z,11.07
2023-03-17T22:11:06.201Z,10.70
2023-03-17T22:13:33.040Z,11.93
2023-03-17T22:15:59.924Z,10.55
2023-03-17T22:18:27.204Z,9.73
2023-03-17T22:20:55.108Z,8.80
2023-03-17T22:23:22.080Z,13.60
2023-03-17T22:25:49.083Z,10.07
2023-03-17T22:28:15.999Z,11.70
2023-03-17T22:30:43.106Z,9.70
2023-03-17T22:33:10.403Z,9.25
2023-03-17T22:35:38.061Z,9.68
2023-03-17T22:38:06.526Z,7.10
2023-03-17T22:40:34.039Z,8.90
2023-03-17T22:43:01.152Z,10.80
2023-03-17T22:45:28.218Z,9.70
2023-03-17T22:47:56.115Z,12.90
2023-03-17T22:50:23.409Z,11.75
2023-03-17T22:52:50.566Z,11.98
2023-03-17T22:55:17.594Z,9.00
2023-03-17T22:57:44.519Z,9.40
2023-03-17T23:00:16.545Z,8.95
2023-03-17T23:02:44.693Z,9.70
2023-03-17T23:05:11.837Z,8.77
2023-03-17T23:07:49.624Z,8.68
2023-03-17T23:10:17.811Z,8.90
2023-03-17T23:12:44.849Z,7.07
2023-03-17T23:15:11.899Z,7.32
2023-03-17T23:17:38.788Z,11.57
2023-03-17T23:20:06.547Z,7.28
2023-03-17T23:22:33.460Z,8.18
2023-03-17T23:25:01.252Z,5.95
2023-03-17T23:27:28.279Z,8.18
2023-03-17T23:29:55.124Z,7.63
2023-03-17T23:32:22.664Z,12.35
2023-03-17T23:34:49.628Z,8.00
2023-03-17T23:37:16.694Z,7.53
2023-03-17T23:39:43.570Z,8.80
2023-03-17T23:42:11.326Z,6.13
2023-03-17T23:44:38.225Z,9.90
2023-03-17T23:47:05.261Z,7.20
2023-03-17T23:49:32.118Z,7.50
2023-03-17T23:51:59.579Z,8.98
2023-03-17T23:54:26.543Z,7.63
2023-03-17T23:56:54.224Z,8.65
2023-03-17T23:59:21.181Z,13.25
